Asukamaru — JG5536 — position and weather

sailwx.info

Track history (hours):
 
Tides and Currents Weather Stations Pressure Air Temp Water Temp Dewpoint Dewpoint Depression Visibility Wind Speed Wind Dir Waves Ship Positions

Asukamaru

Last reported at 2017-Oct-18 02:26 UTC. Time now 2017-Oct-18 16:37 UTC.
Position N 35°38' E 139°46'.

Length 31 m; draft 3 m.

Type: Tug. MMSI: 431001145.

Date/timePositionNaut miles runAvg speedWind from/ knotsBaromVisibWave heightAir tempDewpointWater temp
2017-Oct-18 02:26N 35°38' E 139°46'2 2.7
2017-Oct-18 01:49N 35°36' E 139°46'1 4.2
2017-Oct-18 01:30N 35°37' E 139°46'1 0.0
2017-Oct-17 10:31N 35°38' E 139°46'011.0
2017-Oct-17 10:30N 35°38' E 139°46'0 0.0
2017-Oct-16 23:27N 35°38' E 139°46'2 2.9
2017-Oct-16 22:43N 35°36' E 139°47'1 6.1
2017-Oct-16 22:30N 35°35' E 139°48'1 2.4
2017-Oct-16 21:54N 35°36' E 139°47'3 0.2
2017-Oct-16 06:47N 35°38' E 139°45'1 2.7
2017-Oct-16 06:20N 35°37' E 139°46'2 6.6
2017-Oct-16 06:00N 35°35' E 139°47'3 5.4
2017-Oct-16 05:30N 35°38' E 139°46'0 0.1
2017-Oct-16 01:14N 35°38' E 139°46'1 2.9
2017-Oct-16 00:59N 35°37' E 139°46'1 1.8
2017-Oct-16 00:30N 35°37' E 139°46'2 3.9
2017-Oct-15 23:56N 35°35' E 139°48'3 8.1
2017-Oct-15 23:30N 35°38' E 139°46'0 0.0
2017-Oct-15 10:10N 35°38' E 139°46'210.2
2017-Oct-15 10:01N 35°37' E 139°46'1 1.1
2017-Oct-15 09:30N 35°36' E 139°47'2 3.0
2017-Oct-15 08:47N 35°34' E 139°48'3 7.7
2017-Oct-15 08:26N 35°36' E 139°46'1 0.2
2017-Oct-15 00:00N 35°38' E 139°46'1 3.0
2017-Oct-14 23:30N 35°37' E 139°47'2 3.8
2017-Oct-14 23:00N 35°35' E 139°48'1 0.6
2017-Oct-14 20:52N 35°36' E 139°47'1 1.4
2017-Oct-14 20:11N 35°36' E 139°46'1 0.1
2017-Oct-13 23:36N 35°38' E 139°46'1 8.6
2017-Oct-13 23:29N 35°37' E 139°46'1 1.9
2017-Oct-13 23:00N 35°36' E 139°47'1 1.9
2017-Oct-13 22:24N 35°35' E 139°48'3 6.9
2017-Oct-13 21:59N 35°38' E 139°46'1 0.0
2017-Oct-12 23:29N 35°38' E 139°46'2 4.0
2017-Oct-12 22:53N 35°36' E 139°46'2 6.4
2017-Oct-12 22:29N 35°34' E 139°49'2 1.9
2017-Oct-12 21:10N 35°36' E 139°47'0 0.9
2017-Oct-12 20:59N 35°36' E 139°47'2 3.5
2017-Oct-12 20:29N 35°38' E 139°46'1 0.1
2017-Oct-12 09:22N 35°37' E 139°46'1 2.1
2017-Oct-12 08:49N 35°36' E 139°46'2 7.4
2017-Oct-12 08:30N 35°35' E 139°48'3 5.4
2017-Oct-12 07:57N 35°37' E 139°46'  
2017-Oct-08 09:19N 35°38' E 139°46'2 3.1
2017-Oct-08 08:36N 35°36' E 139°47'1 5.9
2017-Oct-08 08:29N 35°37' E 139°46'  
Track history (hours):
 
Tides and Currents Weather Stations Pressure Air Temp Water Temp Dewpoint Dewpoint Depression Visibility Wind Speed Wind Dir Waves Ship Positions

Asukamaru

Last reported at 2017-Oct-18 02:26 UTC. Time now 2017-Oct-18 16:37 UTC.
Position N 35°38' E 139°46'.

Length 31 m; draft 3 m.

Type: Tug. MMSI: 431001145.

Date/timePositionNaut miles runAvg speedWind from/ knotsBaromVisibWave heightAir tempDewpointWater temp
2017-Oct-18 02:26N 35°38' E 139°46'2 2.7
2017-Oct-18 01:49N 35°36' E 139°46'1 4.2
2017-Oct-18 01:30N 35°37' E 139°46'1 0.0
2017-Oct-17 10:31N 35°38' E 139°46'011.0
2017-Oct-17 10:30N 35°38' E 139°46'0 0.0
2017-Oct-16 23:27N 35°38' E 139°46'2 2.9
2017-Oct-16 22:43N 35°36' E 139°47'1 6.1
2017-Oct-16 22:30N 35°35' E 139°48'1 2.4
2017-Oct-16 21:54N 35°36' E 139°47'3 0.2
2017-Oct-16 06:47N 35°38' E 139°45'1 2.7
2017-Oct-16 06:20N 35°37' E 139°46'2 6.6
2017-Oct-16 06:00N 35°35' E 139°47'3 5.4
2017-Oct-16 05:30N 35°38' E 139°46'0 0.1
2017-Oct-16 01:14N 35°38' E 139°46'1 2.9
2017-Oct-16 00:59N 35°37' E 139°46'1 1.8
2017-Oct-16 00:30N 35°37' E 139°46'2 3.9
2017-Oct-15 23:56N 35°35' E 139°48'3 8.1
2017-Oct-15 23:30N 35°38' E 139°46'0 0.0
2017-Oct-15 10:10N 35°38' E 139°46'210.2
2017-Oct-15 10:01N 35°37' E 139°46'1 1.1
2017-Oct-15 09:30N 35°36' E 139°47'2 3.0
2017-Oct-15 08:47N 35°34' E 139°48'3 7.7
2017-Oct-15 08:26N 35°36' E 139°46'1 0.2
2017-Oct-15 00:00N 35°38' E 139°46'1 3.0
2017-Oct-14 23:30N 35°37' E 139°47'2 3.8
2017-Oct-14 23:00N 35°35' E 139°48'1 0.6
2017-Oct-14 20:52N 35°36' E 139°47'1 1.4
2017-Oct-14 20:11N 35°36' E 139°46'1 0.1
2017-Oct-13 23:36N 35°38' E 139°46'1 8.6
2017-Oct-13 23:29N 35°37' E 139°46'1 1.9
2017-Oct-13 23:00N 35°36' E 139°47'1 1.9
2017-Oct-13 22:24N 35°35' E 139°48'3 6.9
2017-Oct-13 21:59N 35°38' E 139°46'1 0.0
2017-Oct-12 23:29N 35°38' E 139°46'2 4.0
2017-Oct-12 22:53N 35°36' E 139°46'2 6.4
2017-Oct-12 22:29N 35°34' E 139°49'2 1.9
2017-Oct-12 21:10N 35°36' E 139°47'0 0.9
2017-Oct-12 20:59N 35°36' E 139°47'2 3.5
2017-Oct-12 20:29N 35°38' E 139°46'1 0.1
2017-Oct-12 09:22N 35°37' E 139°46'1 2.1
2017-Oct-12 08:49N 35°36' E 139°46'2 7.4
2017-Oct-12 08:30N 35°35' E 139°48'3 5.4
2017-Oct-12 07:57N 35°37' E 139°46'  
2017-Oct-08 09:19N 35°38' E 139°46'2 3.1
2017-Oct-08 08:36N 35°36' E 139°47'1 5.9
2017-Oct-08 08:29N 35°37' E 139°46'  

Dump ship's entire track history